Time;durP1;ratioP1;P1;durP2;ratioP2;P2;SDS_P1;SDS_P2;PMS_P1;PMS_P2;Temp;Humidity;BMP_temperature;BMP_pressure;BME280_temperature;BME280_humidity;BME280_pressure;Samples;Min_cycle;Max_cycle;Signal;HPM_P1;HPM_P2
2022/08/17 00:02:15;;;;;;;13.90;10.60;;;;;;;;;;2270387;59;22221;-78
2022/08/17 00:04:43;;;;;;;13.23;10.35;;;;;;;;;;2500178;55;21069;-79
2022/08/17 00:07:10;;;;;;;13.50;11.18;;;;;;;;;;2269100;59;21080;-78
2022/08/17 00:09:37;;;;;;;12.07;10.20;;;;;;;;;;2268622;59;21068;-79
2022/08/17 00:12:06;;;;;;;12.77;10.48;;;;;;;;;;2269918;59;21065;-82
2022/08/17 00:14:33;;;;;;;11.55;10.35;;;;;;;;;;2269121;59;21189;-80
2022/08/17 00:17:02;;;;;;;10.70;9.25;;;;;;;;;;2269421;59;21125;-82
2022/08/17 00:19:31;;;;;;;12.45;10.15;;;;;;;;;;2500777;55;21073;-79
2022/08/17 00:22:01;;;;;;;11.90;10.70;;;;;;;;;;2270056;59;21069;-79
2022/08/17 00:24:28;;;;;;;13.23;11.07;;;;;;;;;;2270674;59;21046;-79
2022/08/17 00:26:55;;;;;;;11.43;9.85;;;;;;;;;;2268360;59;21100;-80
2022/08/17 00:29:22;;;;;;;13.60;11.20;;;;;;;;;;2269060;59;21124;-79
2022/08/17 00:31:50;;;;;;;10.57;9.57;;;;;;;;;;2269198;59;21144;-82
2022/08/17 00:34:17;;;;;;;12.50;11.15;;;;;;;;;;2269578;59;21064;-79
2022/08/17 00:36:44;;;;;;;12.20;10.90;;;;;;;;;;2269222;59;21145;-81
2022/08/17 00:39:12;;;;;;;12.10;10.90;;;;;;;;;;2500051;55;21135;-80
2022/08/17 00:41:39;;;;;;;13.07;11.15;;;;;;;;;;2269195;59;21125;-79
2022/08/17 00:44:06;;;;;;;12.43;11.12;;;;;;;;;;2270081;59;21049;-79
2022/08/17 00:46:35;;;;;;;13.30;10.75;;;;;;;;;;2269087;59;21133;-79
2022/08/17 00:49:02;;;;;;;13.05;11.68;;;;;;;;;;2269201;59;21041;-81
2022/08/17 00:51:31;;;;;;;11.65;10.45;;;;;;;;;;2269673;59;21115;-79
2022/08/17 00:54:02;;;;;;;12.75;11.48;;;;;;;;;;2269342;59;21136;-79
2022/08/17 00:56:32;;;;;;;12.63;11.43;;;;;;;;;;2269478;59;21049;-79
2022/08/17 00:58:59;;;;;;;15.57;13.48;;;;;;;;;;2269376;59;21061;-79
2022/08/17 01:01:26;;;;;;;16.55;14.20;;;;;;;;;;2269953;59;21153;-79
2022/08/17 01:03:54;;;;;;;14.10;12.68;;;;;;;;;;2499739;55;21069;-79
2022/08/17 01:06:22;;;;;;;14.23;12.48;;;;;;;;;;2269144;59;21623;-79
2022/08/17 01:08:51;;;;;;;14.35;12.85;;;;;;;;;;2269890;59;22303;-78
2022/08/17 01:11:19;;;;;;;13.20;11.82;;;;;;;;;;2269915;59;21049;-79
2022/08/17 01:13:47;;;;;;;14.77;11.98;;;;;;;;;;2498377;55;21664;-79
2022/08/17 01:16:16;;;;;;;13.88;12.40;;;;;;;;;;2499276;55;21049;-78
2022/08/17 01:18:44;;;;;;;14.13;12.65;;;;;;;;;;2269084;59;21109;-81
2022/08/17 01:21:15;;;;;;;15.32;13.73;;;;;;;;;;2268999;59;21945;-80
2022/08/17 01:23:42;;;;;;;18.62;14.07;;;;;;;;;;2269542;59;21129;-83
2022/08/17 01:26:09;;;;;;;14.50;12.85;;;;;;;;;;2268732;59;21119;-82
2022/08/17 01:28:37;;;;;;;14.45;12.40;;;;;;;;;;2269869;59;21049;-78
2022/08/17 01:31:06;;;;;;;14.13;11.65;;;;;;;;;;2269237;59;21076;-78
2022/08/17 01:33:33;;;;;;;13.70;12.10;;;;;;;;;;2498881;55;21097;-79
2022/08/17 01:36:00;;;;;;;12.37;10.88;;;;;;;;;;2268481;59;21104;-79
2022/08/17 01:38:30;;;;;;;14.07;12.05;;;;;;;;;;2269006;59;21060;-79
2022/08/17 01:41:00;;;;;;;13.48;12.07;;;;;;;;;;2499482;55;21069;-80
2022/08/17 01:43:29;;;;;;;13.38;11.88;;;;;;;;;;2268845;59;21121;-78
2022/08/17 01:45:58;;;;;;;14.02;12.00;;;;;;;;;;2268445;59;21069;-79
2022/08/17 01:48:30;;;;;;;12.13;10.82;;;;;;;;;;2269311;59;21073;-78
2022/08/17 01:50:57;;;;;;;14.55;12.40;;;;;;;;;;2269381;59;21049;-78
2022/08/17 01:53:26;;;;;;;13.30;11.60;;;;;;;;;;2499042;55;21113;-81
2022/08/17 01:55:56;;;;;;;15.35;11.93;;;;;;;;;;2499900;55;21077;-78
2022/08/17 01:58:23;;;;;;;11.35;10.13;;;;;;;;;;2500550;54;21064;-81
2022/08/17 02:00:51;;;;;;;11.12;9.98;;;;;;;;;;2269085;59;21053;-78
2022/08/17 02:03:18;;;;;;;9.30;8.38;;;;;;;;;;2500156;55;21124;-79
2022/08/17 02:05:47;;;;;;;11.27;9.77;;;;;;;;;;2269445;59;21148;-81
2022/08/17 02:08:14;;;;;;;11.55;10.38;;;;;;;;;;2269437;59;21139;-79
2022/08/17 02:10:42;;;;;;;13.13;11.82;;;;;;;;;;2269830;59;21551;-78
2022/08/17 02:13:09;;;;;;;13.93;12.43;;;;;;;;;;2269351;59;21137;-78
2022/08/17 02:15:36;;;;;;;15.63;13.88;;;;;;;;;;2269204;59;22283;-79
2022/08/17 02:18:04;;;;;;;13.85;12.27;;;;;;;;;;2268579;59;21053;-78
2022/08/17 02:20:31;;;;;;;15.65;13.88;;;;;;;;;;2500216;55;21065;-78
2022/08/17 02:23:00;;;;;;;15.13;13.50;;;;;;;;;;2269787;59;21149;-79
2022/08/17 02:25:28;;;;;;;14.77;13.05;;;;;;;;;;2499264;55;21073;-82
2022/08/17 02:27:56;;;;;;;15.02;13.38;;;;;;;;;;2499694;55;21451;-78
2022/08/17 02:30:23;;;;;;;15.27;12.77;;;;;;;;;;2269689;59;21930;-79
2022/08/17 02:32:51;;;;;;;14.50;11.93;;;;;;;;;;2500198;55;21552;-79
2022/08/17 02:35:21;;;;;;;13.70;11.90;;;;;;;;;;2268378;59;21615;-82
2022/08/17 02:37:48;;;;;;;12.82;11.57;;;;;;;;;;2269745;59;21060;-79
2022/08/17 02:40:15;;;;;;;14.63;12.40;;;;;;;;;;2268889;59;21647;-78
2022/08/17 02:42:44;;;;;;;14.63;12.55;;;;;;;;;;2269457;59;21117;-78
2022/08/17 02:45:12;;;;;;;12.68;11.30;;;;;;;;;;2269210;59;21588;-80
2022/08/17 02:47:40;;;;;;;13.62;11.40;;;;;;;;;;2269368;59;21113;-78
2022/08/17 02:50:09;;;;;;;13.02;11.65;;;;;;;;;;2268774;59;21049;-78
2022/08/17 02:52:37;;;;;;;13.43;12.02;;;;;;;;;;2269858;59;21102;-79
2022/08/17 02:55:05;;;;;;;13.25;11.57;;;;;;;;;;2499830;55;21117;-79
2022/08/17 02:57:32;;;;;;;12.95;11.40;;;;;;;;;;2269594;59;21147;-80
2022/08/17 02:59:59;;;;;;;12.73;11.20;;;;;;;;;;2269384;59;21136;-79
2022/08/17 03:02:26;;;;;;;12.73;11.43;;;;;;;;;;2269319;59;21132;-79
2022/08/17 03:04:53;;;;;;;10.27;8.95;;;;;;;;;;2268700;59;21655;-81
2022/08/17 03:07:21;;;;;;;8.63;7.82;;;;;;;;;;2499825;55;21053;-78
2022/08/17 03:09:48;;;;;;;11.32;10.23;;;;;;;;;;2499838;55;21053;-79
2022/08/17 03:12:16;;;;;;;10.93;9.52;;;;;;;;;;2499780;55;21171;-79
2022/08/17 03:14:43;;;;;;;13.00;11.60;;;;;;;;;;2268930;59;21078;-78
2022/08/17 03:17:11;;;;;;;15.00;11.70;;;;;;;;;;2268582;59;21065;-80
2022/08/17 03:19:38;;;;;;;12.27;11.07;;;;;;;;;;2269318;59;21057;-79
2022/08/17 03:22:05;;;;;;;13.07;11.65;;;;;;;;;;2269214;59;21120;-79
2022/08/17 03:24:33;;;;;;;12.68;11.43;;;;;;;;;;2499562;55;21065;-81
2022/08/17 03:27:00;;;;;;;14.02;12.63;;;;;;;;;;2269793;59;21144;-78
2022/08/17 03:29:27;;;;;;;12.73;11.43;;;;;;;;;;2269774;59;21069;-78
2022/08/17 03:31:55;;;;;;;14.98;11.63;;;;;;;;;;2499136;55;21074;-79
2022/08/17 03:34:22;;;;;;;15.13;11.55;;;;;;;;;;2498487;55;21085;-79
2022/08/17 03:36:49;;;;;;;14.02;12.27;;;;;;;;;;2268966;59;21531;-78
2022/08/17 03:39:16;;;;;;;12.77;11.48;;;;;;;;;;2269350;59;21073;-79
2022/08/17 03:41:43;;;;;;;13.23;11.20;;;;;;;;;;2270276;59;21069;-78
2022/08/17 03:44:10;;;;;;;11.80;10.50;;;;;;;;;;2269322;59;21057;-81
2022/08/17 04:00:32;;;;;;;13.07;11.18;;;;;;;;;;2537886;54;22173;-78
2022/08/17 04:02:59;;;;;;;13.23;11.38;;;;;;;;;;2559410;54;22246;-77
2022/08/17 04:05:26;;;;;;;11.85;10.55;;;;;;;;;;2317050;58;21052;-77
2022/08/17 04:07:53;;;;;;;12.05;10.77;;;;;;;;;;2318407;58;21497;-77
2022/08/17 04:10:20;;;;;;;14.10;11.68;;;;;;;;;;2558197;54;21515;-78
2022/08/17 04:12:48;;;;;;;14.15;10.90;;;;;;;;;;2317343;58;21037;-76
2022/08/17 04:15:17;;;;;;;13.62;12.00;;;;;;;;;;2317746;58;21060;-77
2022/08/17 04:17:44;;;;;;;14.10;11.12;;;;;;;;;;2317848;58;21314;-77
2022/08/17 04:20:13;;;;;;;11.60;10.38;;;;;;;;;;2558333;54;21100;-78
2022/08/17 04:22:54;;;;;;;13.13;10.38;;;;;;;;;;2318609;58;21041;-79
2022/08/17 04:25:21;;;;;;;11.00;9.90;;;;;;;;;;2316350;58;21068;-80
2022/08/17 04:27:48;;;;;;;10.50;9.50;;;;;;;;;;2317997;58;21591;-80
2022/08/17 04:30:16;;;;;;;10.43;9.38;;;;;;;;;;2317493;58;21590;-77
2022/08/17 04:32:53;;;;;;;11.75;10.55;;;;;;;;;;2318305;58;21068;-79
2022/08/17 04:35:22;;;;;;;10.93;9.90;;;;;;;;;;2315580;58;21043;-80
2022/08/17 04:37:49;;;;;;;10.80;9.70;;;;;;;;;;2559056;54;21040;-80
2022/08/17 04:43:03;;;;;;;10.15;7.57;;;;;;;;;;2317586;58;21079;-78
2022/08/17 04:45:30;;;;;;;9.93;8.25;;;;;;;;;;2557476;54;21047;-78
2022/08/17 04:47:57;;;;;;;9.02;8.13;;;;;;;;;;2318145;58;21092;-79
2022/08/17 04:50:24;;;;;;;9.93;8.93;;;;;;;;;;2318012;58;21053;-77
2022/08/17 04:52:51;;;;;;;12.48;11.20;;;;;;;;;;2558569;54;21056;-77
2022/08/17 04:55:18;;;;;;;11.00;9.90;;;;;;;;;;2557900;54;21060;-77
2022/08/17 04:57:45;;;;;;;11.95;10.48;;;;;;;;;;2317210;58;21036;-77
2022/08/17 05:00:13;;;;;;;14.23;12.20;;;;;;;;;;2557112;54;21021;-77
2022/08/17 05:02:45;;;;;;;18.02;15.10;;;;;;;;;;2317368;58;21037;-77
2022/08/17 05:05:12;;;;;;;17.77;14.50;;;;;;;;;;2317563;58;21052;-77
2022/08/17 05:07:39;;;;;;;15.10;13.52;;;;;;;;;;2317251;58;21131;-80
2022/08/17 05:10:07;;;;;;;17.12;13.05;;;;;;;;;;2317426;58;21111;-77
2022/08/17 05:12:34;;;;;;;17.77;12.63;;;;;;;;;;2317039;58;21108;-77
2022/08/17 05:15:01;;;;;;;12.05;10.63;;;;;;;;;;2316815;58;21048;-77
2022/08/17 05:17:28;;;;;;;11.25;9.93;;;;;;;;;;2317384;58;21064;-82
2022/08/17 05:19:55;;;;;;;16.10;12.68;;;;;;;;;;2558757;54;21057;-81
2022/08/17 05:22:22;;;;;;;15.05;12.68;;;;;;;;;;2557672;54;21063;-79
2022/08/17 05:24:49;;;;;;;14.27;12.77;;;;;;;;;;2557684;54;21044;-77
2022/08/17 05:27:16;;;;;;;17.02;14.07;;;;;;;;;;2556897;54;21039;-80
2022/08/17 05:29:44;;;;;;;17.95;14.70;;;;;;;;;;2316784;58;21037;-77
2022/08/17 05:32:12;;;;;;;21.33;15.32;;;;;;;;;;2317194;58;21052;-80
2022/08/17 05:34:39;;;;;;;18.65;14.85;;;;;;;;;;2558291;54;21111;-77
2022/08/17 05:37:06;;;;;;;19.70;13.95;;;;;;;;;;2557522;54;21116;-78
2022/08/17 05:39:33;;;;;;;19.52;14.95;;;;;;;;;;2316455;58;21111;-77
2022/08/17 05:42:02;;;;;;;22.62;18.85;;;;;;;;;;2317398;58;21045;-77
2022/08/17 05:44:29;;;;;;;20.70;17.98;;;;;;;;;;2557522;54;21045;-77
2022/08/17 05:46:57;;;;;;;26.52;21.62;;;;;;;;;;2557362;54;21096;-78
2022/08/17 05:49:27;;;;;;;23.08;18.12;;;;;;;;;;2317235;58;21061;-77
2022/08/17 05:52:02;;;;;;;25.98;21.85;;;;;;;;;;2317318;58;21168;-77
2022/08/17 05:54:35;;;;;;;27.95;21.87;;;;;;;;;;2557995;54;21024;-77
2022/08/17 05:57:22;;;;;;;24.63;21.17;;;;;;;;;;2338446;54;71094;-83
2022/08/17 05:59:52;;;;;;;27.27;22.00;;;;;;;;;;2266865;59;21052;-82
2022/08/17 06:02:22;;;;;;;29.67;24.08;;;;;;;;;;2269818;59;21045;-83
2022/08/17 06:04:57;;;;;;;26.65;22.77;;;;;;;;;;2268503;59;21132;-83
2022/08/17 06:07:26;;;;;;;27.45;23.12;;;;;;;;;;2277755;58;21677;-82
2022/08/17 06:09:57;;;;;;;25.70;21.75;;;;;;;;;;2295266;58;21185;-82
2022/08/17 06:12:34;;;;;;;29.58;23.45;;;;;;;;;;2295346;58;21141;-82
2022/08/17 06:15:13;;;;;;;27.02;20.83;;;;;;;;;;2295224;58;21074;-82
2022/08/17 06:17:41;;;;;;;35.20;26.45;;;;;;;;;;2294902;58;21067;-81
2022/08/17 06:20:10;;;;;;;29.00;22.90;;;;;;;;;;2530755;54;21082;-83
2022/08/17 06:22:41;;;;;;;30.80;25.20;;;;;;;;;;2530000;54;21132;-82
2022/08/17 06:25:13;;;;;;;32.03;25.55;;;;;;;;;;2294681;58;21622;-83
2022/08/17 06:27:42;;;;;;;29.65;24.58;;;;;;;;;;2294810;58;21054;-82
2022/08/17 06:30:14;;;;;;;29.83;24.55;;;;;;;;;;2294872;58;21054;-82
2022/08/17 06:32:42;;;;;;;26.58;22.10;;;;;;;;;;2295132;58;21058;-82
2022/08/17 06:35:11;;;;;;;34.50;25.75;;;;;;;;;;2294599;58;21067;-83
2022/08/17 06:37:43;;;;;;;32.53;25.25;;;;;;;;;;2293569;58;21169;-82
2022/08/17 06:40:19;;;;;;;31.00;24.23;;;;;;;;;;2293013;58;21114;-82
2022/08/17 06:42:51;;;;;;;31.20;24.12;;;;;;;;;;2528404;55;21050;-81
2022/08/17 06:45:20;;;;;;;31.87;25.90;;;;;;;;;;2292883;58;21058;-82
2022/08/17 06:47:49;;;;;;;27.90;23.70;;;;;;;;;;2294475;58;21162;-81
2022/08/17 06:50:18;;;;;;;27.62;23.67;;;;;;;;;;2294706;58;21141;-83
2022/08/17 06:52:50;;;;;;;27.77;22.83;;;;;;;;;;2294666;58;21059;-82
2022/08/17 06:55:21;;;;;;;27.20;21.07;;;;;;;;;;2294488;58;21043;-81
2022/08/17 06:57:50;;;;;;;25.48;21.80;;;;;;;;;;2528446;54;21099;-81
2022/08/17 07:00:19;;;;;;;26.35;21.27;;;;;;;;;;2293172;58;21075;-81
2022/08/17 07:02:50;;;;;;;29.65;21.58;;;;;;;;;;2292504;58;21117;-81
2022/08/17 07:05:19;;;;;;;30.67;22.65;;;;;;;;;;2527952;55;21071;-81
2022/08/17 07:08:02;;;;;;;27.52;22.27;;;;;;;;;;2529048;55;21082;-82
2022/08/17 07:10:31;;;;;;;25.25;20.30;;;;;;;;;;2293104;58;21058;-82
2022/08/17 07:13:07;;;;;;;22.25;19.73;;;;;;;;;;2527943;54;21117;-82
2022/08/17 07:15:41;;;;;;;24.27;20.10;;;;;;;;;;2292979;58;21054;-82
2022/08/17 07:18:08;;;;;;;24.60;19.90;;;;;;;;;;2528265;54;21110;-82
2022/08/17 07:20:36;;;;;;;23.85;19.67;;;;;;;;;;2292750;58;21050;-81
2022/08/17 07:23:05;;;;;;;26.75;21.85;;;;;;;;;;2293890;58;21122;-81
2022/08/17 07:25:33;;;;;;;25.83;21.50;;;;;;;;;;2293317;58;21131;-82
2022/08/17 07:28:02;;;;;;;23.87;20.65;;;;;;;;;;2293559;58;21173;-81
2022/08/17 07:30:30;;;;;;;23.23;18.70;;;;;;;;;;2293302;58;21074;-82
2022/08/17 07:32:59;;;;;;;22.35;18.77;;;;;;;;;;2293267;58;21558;-81
2022/08/17 07:35:38;;;;;;;21.20;17.23;;;;;;;;;;2290910;58;21535;-81
2022/08/17 07:40:47;;;;;;;21.95;18.73;;;;;;;;;;2570255;54;22654;-79
2022/08/17 07:43:22;;;;;;;22.85;19.73;;;;;;;;;;2315952;58;21149;-78
2022/08/17 07:48:39;;;;;;;18.08;14.90;;;;;;;;;;2316894;58;21066;-79
2022/08/17 07:51:18;;;;;;;18.20;14.27;;;;;;;;;;2316429;58;21200;-79
2022/08/17 07:53:45;;;;;;;18.20;14.73;;;;;;;;;;2315207;58;21070;-79
2022/08/17 07:56:30;;;;;;;18.98;15.10;;;;;;;;;;2555538;54;21105;-79
2022/08/17 07:59:06;;;;;;;16.70;14.90;;;;;;;;;;2314441;58;21727;-78
2022/08/17 08:01:36;;;;;;;18.30;14.32;;;;;;;;;;2316464;58;21117;-79
2022/08/17 08:04:15;;;;;;;18.25;14.57;;;;;;;;;;2316422;58;21138;-79
2022/08/17 08:06:47;;;;;;;16.92;14.90;;;;;;;;;;2318469;58;21054;-79
2022/08/17 08:09:28;;;;;;;21.20;16.52;;;;;;;;;;2318808;58;21053;-79
2022/08/17 08:11:55;;;;;;;16.23;14.43;;;;;;;;;;2319042;58;21169;-79
2022/08/17 08:14:25;;;;;;;18.30;14.40;;;;;;;;;;2560160;54;21105;-79
2022/08/17 08:16:57;;;;;;;23.52;19.08;;;;;;;;;;2318172;58;21114;-79
2022/08/17 08:19:25;;;;;;;19.90;14.68;;;;;;;;;;2318119;58;21038;-78
2022/08/17 08:21:58;;;;;;;17.77;14.20;;;;;;;;;;2317713;58;21117;-79
2022/08/17 08:24:34;;;;;;;15.50;12.90;;;;;;;;;;2317892;58;21050;-78
2022/08/17 08:27:06;;;;;;;15.75;12.65;;;;;;;;;;2317107;58;21180;-78
2022/08/17 08:29:36;;;;;;;15.02;13.23;;;;;;;;;;2317646;58;21134;-79
2022/08/17 08:32:09;;;;;;;13.93;11.25;;;;;;;;;;2317792;58;21137;-79
2022/08/17 08:34:44;;;;;;;13.30;11.57;;;;;;;;;;2318168;58;21121;-79
2022/08/17 08:37:17;;;;;;;13.10;11.55;;;;;;;;;;2317673;58;21101;-79
2022/08/17 08:39:55;;;;;;;13.48;11.23;;;;;;;;;;2317894;58;21054;-79
2022/08/17 08:42:25;;;;;;;13.45;11.27;;;;;;;;;;2318152;58;21191;-80
2022/08/17 08:44:58;;;;;;;19.85;10.07;;;;;;;;;;2317988;58;21066;-80
2022/08/17 08:47:34;;;;;;;11.40;9.57;;;;;;;;;;2317245;58;21094;-79
2022/08/17 08:50:09;;;;;;;13.13;10.50;;;;;;;;;;2317703;58;21125;-80
2022/08/17 08:52:44;;;;;;;13.50;9.57;;;;;;;;;;2317006;58;21045;-79
2022/08/17 08:55:15;;;;;;;11.50;9.20;;;;;;;;;;2317233;58;21054;-77
2022/08/17 08:57:45;;;;;;;15.85;11.20;;;;;;;;;;2556299;54;21077;-80
2022/08/17 09:00:14;;;;;;;10.65;9.55;;;;;;;;;;2317118;58;21106;-79
2022/08/17 09:02:49;;;;;;;12.32;9.45;;;;;;;;;;2317309;58;21604;-81
2022/08/17 09:05:21;;;;;;;11.38;8.90;;;;;;;;;;2316993;58;21620;-77
2022/08/17 09:07:51;;;;;;;11.35;8.70;;;;;;;;;;2317470;58;21216;-79
2022/08/17 09:10:23;;;;;;;9.27;8.32;;;;;;;;;;2317289;58;21134;-77
2022/08/17 09:12:53;;;;;;;11.57;7.50;;;;;;;;;;2316780;58;21141;-80
2022/08/17 09:15:24;;;;;;;8.93;8.02;;;;;;;;;;2316574;58;21062;-76
2022/08/17 09:17:57;;;;;;;9.70;7.25;;;;;;;;;;2317323;58;21050;-77
2022/08/17 09:20:28;;;;;;;9.43;7.20;;;;;;;;;;2317965;58;21065;-80
2022/08/17 09:22:58;;;;;;;8.88;7.97;;;;;;;;;;2318563;58;21117;-79
2022/08/17 09:25:27;;;;;;;8.45;7.62;;;;;;;;;;2558884;54;21111;-79
2022/08/17 09:27:57;;;;;;;9.10;7.43;;;;;;;;;;2318684;58;21050;-80
2022/08/17 09:30:26;;;;;;;9.82;7.95;;;;;;;;;;2318739;58;21061;-80
2022/08/17 09:32:56;;;;;;;9.38;6.95;;;;;;;;;;2318721;58;21050;-81
2022/08/17 09:35:24;;;;;;;8.70;6.87;;;;;;;;;;2316735;58;21086;-80
2022/08/17 09:37:56;;;;;;;9.55;7.28;;;;;;;;;;2318922;58;21073;-80
2022/08/17 09:40:25;;;;;;;9.93;7.12;;;;;;;;;;2318607;58;21127;-79
2022/08/17 09:42:54;;;;;;;9.15;7.22;;;;;;;;;;2319277;58;21090;-80
2022/08/17 09:45:30;;;;;;;7.68;6.90;;;;;;;;;;2559213;53;21081;-80
2022/08/17 09:47:59;;;;;;;6.97;6.28;;;;;;;;;;2318508;58;21556;-80
2022/08/17 09:50:30;;;;;;;8.40;6.47;;;;;;;;;;2319297;58;21065;-79
2022/08/17 09:52:58;;;;;;;9.85;6.95;;;;;;;;;;2317754;58;22857;-77
2022/08/17 09:55:29;;;;;;;7.43;6.32;;;;;;;;;;2318136;58;21138;-81
2022/08/17 09:57:59;;;;;;;7.70;6.93;;;;;;;;;;2560591;54;21070;-78
2022/08/17 10:00:29;;;;;;;9.48;7.22;;;;;;;;;;2319549;58;21061;-79
2022/08/17 10:03:10;;;;;;;7.03;6.32;;;;;;;;;;2319569;58;21086;-78
2022/08/17 10:05:44;;;;;;;8.40;7.05;;;;;;;;;;2318785;58;21559;-81
2022/08/17 10:08:13;;;;;;;11.65;7.50;;;;;;;;;;2319564;58;21066;-81
2022/08/17 10:10:46;;;;;;;8.50;7.60;;;;;;;;;;2318322;58;21113;-78
2022/08/17 10:13:19;;;;;;;8.00;7.18;;;;;;;;;;2319483;58;21121;-79
2022/08/17 10:15:49;;;;;;;7.80;6.97;;;;;;;;;;2318557;58;21058;-80
2022/08/17 10:18:36;;;;;;;7.97;7.25;;;;;;;;;;2318858;58;21529;-80
2022/08/17 10:26:42;;;;;;;7.53;6.70;;;;;;;;;;2318569;58;20981;-78
2022/08/17 10:29:16;;;;;;;8.68;7.62;;;;;;;;;;2319405;58;21053;-80
2022/08/17 10:31:45;;;;;;;7.28;6.50;;;;;;;;;;2318877;58;21078;-81
2022/08/17 10:34:24;;;;;;;8.40;7.12;;;;;;;;;;2319620;58;21138;-78
2022/08/17 10:36:55;;;;;;;7.35;6.65;;;;;;;;;;2318104;58;21047;-80
2022/08/17 10:39:28;;;;;;;6.97;6.28;;;;;;;;;;2558404;54;21053;-81
2022/08/17 10:41:57;;;;;;;7.97;6.50;;;;;;;;;;2319160;58;21065;-77
2022/08/17 10:44:28;;;;;;;7.50;6.70;;;;;;;;;;2319001;58;21118;-80
2022/08/17 10:47:03;;;;;;;7.03;6.25;;;;;;;;;;2319223;58;21073;-81
2022/08/17 10:49:32;;;;;;;7.78;6.53;;;;;;;;;;2318878;58;21178;-80
2022/08/17 10:52:01;;;;;;;7.32;6.60;;;;;;;;;;2318304;58;21154;-78
2022/08/17 10:54:39;;;;;;;7.78;6.60;;;;;;;;;;2318986;58;21085;-81
2022/08/17 10:57:34;;;;;;;7.53;6.80;;;;;;;;;;2559670;54;21070;-80
2022/08/17 11:00:02;;;;;;;10.02;6.75;;;;;;;;;;2318886;58;21099;-81
2022/08/17 11:02:30;;;;;;;7.85;6.62;;;;;;;;;;2319798;58;21556;-81
2022/08/17 11:05:12;;;;;;;7.97;6.03;;;;;;;;;;2559049;54;21540;-80
2022/08/17 11:07:52;;;;;;;7.28;6.55;;;;;;;;;;2559591;54;21085;-80
2022/08/17 11:10:31;;;;;;;7.37;6.65;;;;;;;;;;2319700;58;21078;-78
2022/08/17 11:13:01;;;;;;;8.68;5.90;;;;;;;;;;2316897;58;21066;-79
2022/08/17 11:15:36;;;;;;;6.72;6.03;;;;;;;;;;2558451;54;21082;-79
2022/08/17 11:18:29;;;;;;;8.30;5.68;;;;;;;;;;2317558;58;21110;-80
2022/08/17 11:21:19;;;;;;;6.35;5.28;;;;;;;;;;2318262;58;21054;-81
2022/08/17 11:24:04;;;;;;;6.62;5.68;;;;;;;;;;2306165;58;21109;-78
2022/08/17 11:26:33;;;;;;;7.25;5.43;;;;;;;;;;2558023;54;21054;-78
2022/08/17 11:29:02;;;;;;;7.32;6.07;;;;;;;;;;2317966;58;21137;-78
2022/08/17 11:31:32;;;;;;;5.95;5.28;;;;;;;;;;2317766;58;21608;-81
2022/08/17 11:34:02;;;;;;;6.78;5.32;;;;;;;;;;2317940;58;21559;-80
2022/08/17 11:36:35;;;;;;;7.57;5.35;;;;;;;;;;2557339;53;21075;-81
2022/08/17 11:39:05;;;;;;;8.60;5.28;;;;;;;;;;2558975;53;21050;-81
2022/08/17 11:41:38;;;;;;;7.80;5.37;;;;;;;;;;2318046;58;21054;-81
2022/08/17 11:44:15;;;;;;;5.72;5.10;;;;;;;;;;2558982;54;21357;-77
2022/08/17 11:52:41;;;;;;;5.65;5.00;;;;;;;;;;2318047;58;21009;-81
2022/08/17 11:55:10;;;;;;;12.40;5.32;;;;;;;;;;2317815;58;21058;-79
2022/08/17 11:58:09;;;;;;;7.93;5.40;;;;;;;;;;2352639;55;21770;-79
2022/08/17 12:00:51;;;;;;;6.47;5.40;;;;;;;;;;2290241;58;21088;-78
2022/08/17 12:03:42;;;;;;;9.80;5.62;;;;;;;;;;2288457;56;21053;-79
2022/08/17 12:06:16;;;;;;;6.62;4.97;;;;;;;;;;2275244;59;21076;-79
2022/08/17 12:08:47;;;;;;;7.32;5.28;;;;;;;;;;2288771;59;21567;-79
2022/08/17 12:11:19;;;;;;;6.20;5.30;;;;;;;;;;2288407;58;21143;-78
2022/08/17 12:13:47;;;;;;;8.02;5.72;;;;;;;;;;2287049;59;21080;-78
2022/08/17 12:16:15;;;;;;;6.75;5.65;;;;;;;;;;2287715;59;21093;-78
2022/08/17 12:18:48;;;;;;;6.60;5.87;;;;;;;;;;2289494;58;21061;-78
2022/08/17 12:21:23;;;;;;;5.95;5.35;;;;;;;;;;2289205;58;21140;-78
2022/08/17 12:23:54;;;;;;;9.15;5.40;;;;;;;;;;2289632;58;21049;-78
2022/08/17 12:26:23;;;;;;;5.82;5.25;;;;;;;;;;2350255;55;21120;-79
2022/08/17 12:28:54;;;;;;;5.85;5.35;;;;;;;;;;2289368;58;21140;-77
2022/08/17 12:31:25;;;;;;;6.93;5.35;;;;;;;;;;2289519;58;21453;-78
2022/08/17 12:33:52;;;;;;;6.37;5.62;;;;;;;;;;2288542;58;21627;-78
2022/08/17 12:36:23;;;;;;;6.32;5.65;;;;;;;;;;2289090;58;21073;-79
2022/08/17 12:38:51;;;;;;;8.18;5.55;;;;;;;;;;2289896;58;21068;-79
2022/08/17 12:41:29;;;;;;;6.68;5.80;;;;;;;;;;2289799;58;21077;-78
2022/08/17 12:44:00;;;;;;;6.47;5.20;;;;;;;;;;2307251;55;21642;-78
2022/08/17 12:46:27;;;;;;;7.40;5.75;;;;;;;;;;2290103;55;21080;-78
2022/08/17 12:49:10;;;;;;;7.40;5.57;;;;;;;;;;2289607;58;21069;-78
2022/08/17 12:51:41;;;;;;;7.85;5.57;;;;;;;;;;2289317;55;21570;-78
2022/08/17 12:54:21;;;;;;;5.25;4.75;;;;;;;;;;2308732;55;21133;-79
2022/08/17 12:56:48;;;;;;;6.87;5.35;;;;;;;;;;2289312;55;21048;-78
2022/08/17 12:59:17;;;;;;;5.55;5.05;;;;;;;;;;2288788;58;21151;-79
2022/08/17 13:01:45;;;;;;;5.65;5.07;;;;;;;;;;2311179;55;21061;-78
2022/08/17 13:04:13;;;;;;;5.35;4.85;;;;;;;;;;2521163;55;21398;-79
2022/08/17 13:06:46;;;;;;;7.55;5.10;;;;;;;;;;2289174;58;21069;-79
2022/08/17 13:09:15;;;;;;;7.18;5.15;;;;;;;;;;2320598;55;21080;-78
2022/08/17 13:11:47;;;;;;;5.05;4.55;;;;;;;;;;2325403;55;21140;-78
2022/08/17 13:14:17;;;;;;;5.17;4.70;;;;;;;;;;2289096;58;21113;-79
2022/08/17 13:16:48;;;;;;;6.40;5.10;;;;;;;;;;2288403;58;21096;-78
2022/08/17 13:19:20;;;;;;;5.72;4.90;;;;;;;;;;2288772;58;21123;-78
2022/08/17 13:21:49;;;;;;;4.97;4.57;;;;;;;;;;2318621;55;21144;-79
2022/08/17 13:24:18;;;;;;;6.15;5.40;;;;;;;;;;2306197;55;21104;-79
2022/08/17 13:26:47;;;;;;;8.38;5.22;;;;;;;;;;2287941;58;21135;-79
2022/08/17 13:29:23;;;;;;;6.32;5.20;;;;;;;;;;2288497;58;21061;-78
2022/08/17 13:31:51;;;;;;;7.05;4.72;;;;;;;;;;2288922;58;21081;-79
2022/08/17 13:34:30;;;;;;;7.12;5.30;;;;;;;;;;2289125;58;21639;-78
2022/08/17 13:37:17;;;;;;;5.35;4.85;;;;;;;;;;2288416;58;21092;-79
2022/08/17 13:39:44;;;;;;;7.95;5.37;;;;;;;;;;2288896;58;21068;-79
2022/08/17 13:42:29;;;;;;;11.00;5.20;;;;;;;;;;2289005;58;21757;-79
2022/08/17 13:44:56;;;;;;;6.95;5.03;;;;;;;;;;2371292;55;21141;-79
2022/08/17 13:47:24;;;;;;;5.90;4.50;;;;;;;;;;2288643;58;21057;-78
2022/08/17 13:49:51;;;;;;;5.82;5.18;;;;;;;;;;2289076;58;21076;-78
2022/08/17 13:52:35;;;;;;;7.57;5.07;;;;;;;;;;2289145;58;21112;-78
2022/08/17 13:55:04;;;;;;;5.37;4.85;;;;;;;;;;2301703;55;21092;-79
2022/08/17 13:57:31;;;;;;;6.18;4.95;;;;;;;;;;2288693;58;21061;-79
2022/08/17 14:00:09;;;;;;;5.62;5.12;;;;;;;;;;2311198;55;21104;-78
2022/08/17 14:02:36;;;;;;;9.52;6.18;;;;;;;;;;2306068;55;21574;-78
2022/08/17 14:05:03;;;;;;;7.55;6.03;;;;;;;;;;2288979;58;21088;-78
2022/08/17 14:07:32;;;;;;;6.37;5.78;;;;;;;;;;2288107;58;21084;-79
2022/08/17 14:10:00;;;;;;;6.85;5.60;;;;;;;;;;2289946;58;21120;-78
2022/08/17 14:12:28;;;;;;;7.00;5.80;;;;;;;;;;2290257;58;21147;-79
2022/08/17 14:14:57;;;;;;;5.97;5.40;;;;;;;;;;2290155;58;21081;-79
2022/08/17 14:17:25;;;;;;;8.18;5.80;;;;;;;;;;2289852;58;21077;-79
2022/08/17 14:19:52;;;;;;;6.50;5.43;;;;;;;;;;2289734;58;21057;-79
2022/08/17 14:22:22;;;;;;;6.70;6.10;;;;;;;;;;2289637;58;21129;-78
2022/08/17 14:24:50;;;;;;;9.82;6.12;;;;;;;;;;2289953;58;21076;-78
2022/08/17 14:27:18;;;;;;;8.07;6.10;;;;;;;;;;2288984;58;21076;-79
2022/08/17 14:29:45;;;;;;;8.32;6.60;;;;;;;;;;2290136;58;21073;-80
2022/08/17 14:32:16;;;;;;;6.60;5.72;;;;;;;;;;2290389;58;21156;-79
2022/08/17 14:34:44;;;;;;;7.75;6.95;;;;;;;;;;2290125;58;21059;-78
2022/08/17 14:37:11;;;;;;;6.75;5.95;;;;;;;;;;2289745;58;21068;-78
2022/08/17 14:39:38;;;;;;;7.93;6.50;;;;;;;;;;2295091;55;21091;-79
2022/08/17 14:42:06;;;;;;;9.25;6.07;;;;;;;;;;2296468;55;21140;-79
2022/08/17 14:44:33;;;;;;;6.57;5.90;;;;;;;;;;2288031;58;21080;-79
2022/08/17 14:47:00;;;;;;;6.87;6.18;;;;;;;;;;2288443;58;21104;-78
2022/08/17 14:49:29;;;;;;;7.80;7.10;;;;;;;;;;2317638;55;21064;-79
2022/08/17 14:51:56;;;;;;;8.70;7.40;;;;;;;;;;2289416;58;21215;-78
2022/08/17 14:54:23;;;;;;;8.85;7.53;;;;;;;;;;2438899;55;21073;-79
2022/08/17 14:56:50;;;;;;;9.25;7.37;;;;;;;;;;2288812;58;21076;-78
2022/08/17 14:59:17;;;;;;;9.20;7.18;;;;;;;;;;2289040;58;21639;-79
2022/08/17 15:01:46;;;;;;;9.15;7.60;;;;;;;;;;2289069;58;21147;-79
2022/08/17 15:04:16;;;;;;;7.68;6.87;;;;;;;;;;2291442;55;21092;-78
2022/08/17 15:06:44;;;;;;;9.45;7.53;;;;;;;;;;2288960;58;21144;-79
2022/08/17 15:09:11;;;;;;;7.93;7.12;;;;;;;;;;2289514;58;21076;-78
2022/08/17 15:11:39;;;;;;;8.23;7.43;;;;;;;;;;2289684;55;22187;-78
2022/08/17 15:14:06;;;;;;;13.48;7.82;;;;;;;;;;2289048;58;21144;-78
2022/08/17 15:16:34;;;;;;;10.65;7.07;;;;;;;;;;2288360;59;21132;-78
2022/08/17 15:19:02;;;;;;;10.40;7.53;;;;;;;;;;2289463;58;21072;-78
2022/08/17 15:21:29;;;;;;;7.85;7.05;;;;;;;;;;2289338;58;21065;-78